sensor_id;sensor_type;location;lat;lon;timestamp;pressure;altitude;pressure_sealevel;temperature;humidity
60240;BME280;46102;39.012;-7.064;2023-02-23T00:00:22;98444.00;;;9.15;87.93
60240;BME280;46102;39.012;-7.064;2023-02-23T00:02:28;98437.84;;;9.10;88.02
60240;BME280;46102;39.012;-7.064;2023-02-23T00:04:28;98445.13;;;9.14;87.61
60240;BME280;46102;39.012;-7.064;2023-02-23T00:06:32;98438.66;;;9.10;87.92
60240;BME280;46102;39.012;-7.064;2023-02-23T00:08:34;98436.53;;;9.07;87.80
60240;BME280;46102;39.012;-7.064;2023-02-23T00:10:37;98436.22;;;9.09;87.88
60240;BME280;46102;39.012;-7.064;2023-02-23T00:12:38;98433.63;;;9.04;88.04
60240;BME280;46102;39.012;-7.064;2023-02-23T00:14:39;98424.41;;;9.00;88.66
60240;BME280;46102;39.012;-7.064;2023-02-23T00:16:40;98423.41;;;8.95;88.89
60240;BME280;46102;39.012;-7.064;2023-02-23T00:18:50;98415.50;;;8.94;88.71
60240;BME280;46102;39.012;-7.064;2023-02-23T00:20:56;98416.81;;;8.96;88.59
60240;BME280;46102;39.012;-7.064;2023-02-23T00:22:57;98419.44;;;9.02;89.21
60240;BME280;46102;39.012;-7.064;2023-02-23T00:24:58;98408.09;;;8.94;88.71
60240;BME280;46102;39.012;-7.064;2023-02-23T00:26:59;98415.50;;;8.94;89.20
60240;BME280;46102;39.012;-7.064;2023-02-23T00:29:11;98413.25;;;8.96;88.99
60240;BME280;46102;39.012;-7.064;2023-02-23T00:31:13;98403.44;;;8.95;89.60
60240;BME280;46102;39.012;-7.064;2023-02-23T00:33:14;98399.28;;;8.98;89.41
60240;BME280;46102;39.012;-7.064;2023-02-23T00:35:15;98410.66;;;8.91;90.00
60240;BME280;46102;39.012;-7.064;2023-02-23T00:37:19;98399.41;;;8.92;89.55
60240;BME280;46102;39.012;-7.064;2023-02-23T00:39:22;98400.84;;;8.90;90.14
60240;BME280;46102;39.012;-7.064;2023-02-23T00:41:28;98396.16;;;8.90;89.94
60240;BME280;46102;39.012;-7.064;2023-02-23T00:43:32;98395.03;;;8.91;89.68
60240;BME280;46102;39.012;-7.064;2023-02-23T00:45:33;98405.50;;;8.89;90.24
60240;BME280;46102;39.012;-7.064;2023-02-23T00:47:35;98404.94;;;8.79;90.71
60240;BME280;46102;39.012;-7.064;2023-02-23T00:49:36;98403.50;;;8.81;90.28
60240;BME280;46102;39.012;-7.064;2023-02-23T00:51:37;98400.56;;;8.78;90.90
60240;BME280;46102;39.012;-7.064;2023-02-23T00:53:41;98389.09;;;8.75;91.13
60240;BME280;46102;39.012;-7.064;2023-02-23T00:55:42;98392.97;;;8.74;91.28
60240;BME280;46102;39.012;-7.064;2023-02-23T00:57:43;98379.59;;;8.73;91.23
60240;BME280;46102;39.012;-7.064;2023-02-23T00:59:44;98385.88;;;8.73;91.77
60240;BME280;46102;39.012;-7.064;2023-02-23T01:01:45;98379.31;;;8.74;91.54
60240;BME280;46102;39.012;-7.064;2023-02-23T01:03:46;98383.13;;;8.73;92.53
60240;BME280;46102;39.012;-7.064;2023-02-23T01:05:47;98380.72;;;8.72;91.90
60240;BME280;46102;39.012;-7.064;2023-02-23T01:07:49;98371.09;;;8.74;92.60
60240;BME280;46102;39.012;-7.064;2023-02-23T01:09:50;98373.31;;;8.72;92.32
60240;BME280;46102;39.012;-7.064;2023-02-23T01:11:51;98368.38;;;8.74;93.20
60240;BME280;46102;39.012;-7.064;2023-02-23T01:13:55;98373.13;;;8.69;93.29
60240;BME280;46102;39.012;-7.064;2023-02-23T01:15:57;98371.81;;;8.66;93.27
60240;BME280;46102;39.012;-7.064;2023-02-23T01:17:59;98366.72;;;8.73;93.32
60240;BME280;46102;39.012;-7.064;2023-02-23T01:20:00;98371.22;;;8.69;93.95
60240;BME280;46102;39.012;-7.064;2023-02-23T01:22:01;98372.44;;;8.63;93.76
60240;BME280;46102;39.012;-7.064;2023-02-23T01:24:11;98372.56;;;8.58;93.96
60240;BME280;46102;39.012;-7.064;2023-02-23T01:26:22;98377.22;;;8.58;94.25
60240;BME280;46102;39.012;-7.064;2023-02-23T01:28:23;98367.69;;;8.55;94.73
60240;BME280;46102;39.012;-7.064;2023-02-23T01:30:24;98364.16;;;8.54;95.02
60240;BME280;46102;39.012;-7.064;2023-02-23T01:32:24;98354.03;;;8.55;95.38
60240;BME280;46102;39.012;-7.064;2023-02-23T01:34:29;98353.72;;;8.57;95.36
60240;BME280;46102;39.012;-7.064;2023-02-23T01:36:34;98365.47;;;8.57;95.57
60240;BME280;46102;39.012;-7.064;2023-02-23T01:38:35;98356.78;;;8.55;94.96
60240;BME280;46102;39.012;-7.064;2023-02-23T01:40:36;98355.34;;;8.58;96.07
60240;BME280;46102;39.012;-7.064;2023-02-23T01:42:39;98364.66;;;8.57;95.62
60240;BME280;46102;39.012;-7.064;2023-02-23T01:46:44;98356.53;;;8.65;95.37
60240;BME280;46102;39.012;-7.064;2023-02-23T01:48:45;98357.47;;;8.61;95.36
60240;BME280;46102;39.012;-7.064;2023-02-23T01:50:55;98357.78;;;8.59;96.44
60240;BME280;46102;39.012;-7.064;2023-02-23T01:52:57;98346.25;;;8.48;96.16
60240;BME280;46102;39.012;-7.064;2023-02-23T01:54:58;98354.16;;;8.50;96.95
60240;BME280;46102;39.012;-7.064;2023-02-23T01:57:01;98349.81;;;8.49;97.33
60240;BME280;46102;39.012;-7.064;2023-02-23T01:59:05;98355.09;;;8.45;97.38
60240;BME280;46102;39.012;-7.064;2023-02-23T02:01:09;98350.91;;;8.48;96.82
60240;BME280;46102;39.012;-7.064;2023-02-23T02:03:14;98338.81;;;8.40;97.03
60240;BME280;46102;39.012;-7.064;2023-02-23T02:05:19;98344.94;;;8.46;97.74
60240;BME280;46102;39.012;-7.064;2023-02-23T02:07:25;98335.94;;;8.45;97.33
60240;BME280;46102;39.012;-7.064;2023-02-23T02:09:28;98334.81;;;8.46;97.51
60240;BME280;46102;39.012;-7.064;2023-02-23T02:11:34;98333.22;;;8.45;98.03
60240;BME280;46102;39.012;-7.064;2023-02-23T02:13:38;98332.41;;;8.45;97.89
60240;BME280;46102;39.012;-7.064;2023-02-23T02:16:05;98324.28;;;8.40;98.08
60240;BME280;46102;39.012;-7.064;2023-02-23T02:18:21;98327.63;;;8.37;98.68
60240;BME280;46102;39.012;-7.064;2023-02-23T02:20:40;98327.88;;;8.40;98.67
60240;BME280;46102;39.012;-7.064;2023-02-23T02:35:31;98313.97;;;8.37;97.49
60240;BME280;46102;39.012;-7.064;2023-02-23T02:39:58;98314.22;;;8.26;96.99
60240;BME280;46102;39.012;-7.064;2023-02-23T02:46:55;98300.88;;;8.11;97.53
60240;BME280;46102;39.012;-7.064;2023-02-23T02:51:09;98303.28;;;8.12;96.35
60240;BME280;46102;39.012;-7.064;2023-02-23T02:53:21;98300.38;;;8.09;96.25
60240;BME280;46102;39.012;-7.064;2023-02-23T02:55:27;98302.72;;;8.02;96.17
60240;BME280;46102;39.012;-7.064;2023-02-23T02:57:34;98298.34;;;8.01;95.83
60240;BME280;46102;39.012;-7.064;2023-02-23T02:59:47;98302.00;;;7.96;96.36
60240;BME280;46102;39.012;-7.064;2023-02-23T03:02:13;98302.72;;;7.88;96.23
60240;BME280;46102;39.012;-7.064;2023-02-23T03:04:36;98297.25;;;7.88;96.30
60240;BME280;46102;39.012;-7.064;2023-02-23T03:06:58;98297.16;;;7.93;95.52
60240;BME280;46102;39.012;-7.064;2023-02-23T03:12:10;98287.66;;;7.77;95.56
60240;BME280;46102;39.012;-7.064;2023-02-23T03:14:53;98282.00;;;7.73;94.92
60240;BME280;46102;39.012;-7.064;2023-02-23T03:22:36;98277.25;;;7.65;94.54
60240;BME280;46102;39.012;-7.064;2023-02-23T03:24:57;98266.34;;;7.65;94.08
60240;BME280;46102;39.012;-7.064;2023-02-23T03:30:05;98275.16;;;7.62;93.30
60240;BME280;46102;39.012;-7.064;2023-02-23T03:32:39;98269.69;;;7.62;93.07
60240;BME280;46102;39.012;-7.064;2023-02-23T03:35:14;98273.00;;;7.59;93.27
60240;BME280;46102;39.012;-7.064;2023-02-23T03:37:40;98259.34;;;7.59;93.00
60240;BME280;46102;39.012;-7.064;2023-02-23T03:40:17;98264.41;;;7.51;93.00
60240;BME280;46102;39.012;-7.064;2023-02-23T03:42:38;98256.16;;;7.57;92.53
60240;BME280;46102;39.012;-7.064;2023-02-23T03:45:05;98260.28;;;7.54;92.40
60240;BME280;46102;39.012;-7.064;2023-02-23T03:47:29;98254.00;;;7.54;92.13
60240;BME280;46102;39.012;-7.064;2023-02-23T03:49:52;98262.09;;;7.45;91.93
60240;BME280;46102;39.012;-7.064;2023-02-23T03:52:15;98254.22;;;7.43;92.27
60240;BME280;46102;39.012;-7.064;2023-02-23T03:54:42;98250.78;;;7.38;91.16
60240;BME280;46102;39.012;-7.064;2023-02-23T03:57:07;98254.72;;;7.32;91.50
60240;BME280;46102;39.012;-7.064;2023-02-23T03:59:31;98248.84;;;7.24;92.07
60240;BME280;46102;39.012;-7.064;2023-02-23T04:01:53;98243.78;;;7.32;91.17
60240;BME280;46102;39.012;-7.064;2023-02-23T04:04:14;98250.50;;;7.25;91.29
60240;BME280;46102;39.012;-7.064;2023-02-23T04:06:36;98255.94;;;7.25;90.45
60240;BME280;46102;39.012;-7.064;2023-02-23T04:09:00;98254.31;;;7.24;91.03
60240;BME280;46102;39.012;-7.064;2023-02-23T04:11:27;98247.53;;;7.22;90.66
60240;BME280;46102;39.012;-7.064;2023-02-23T04:13:53;98248.44;;;7.17;91.01
60240;BME280;46102;39.012;-7.064;2023-02-23T04:16:04;98249.88;;;7.15;90.21
60240;BME280;46102;39.012;-7.064;2023-02-23T04:18:08;98252.88;;;7.13;89.84
60240;BME280;46102;39.012;-7.064;2023-02-23T04:20:13;98244.19;;;7.11;89.99
60240;BME280;46102;39.012;-7.064;2023-02-23T04:22:14;98238.63;;;7.02;90.01
60240;BME280;46102;39.012;-7.064;2023-02-23T04:24:15;98238.44;;;6.99;90.53
60240;BME280;46102;39.012;-7.064;2023-02-23T04:26:16;98241.75;;;6.96;90.02
60240;BME280;46102;39.012;-7.064;2023-02-23T04:28:18;98232.47;;;6.97;89.92
60240;BME280;46102;39.012;-7.064;2023-02-23T04:30:19;98240.38;;;6.98;89.88
60240;BME280;46102;39.012;-7.064;2023-02-23T04:32:19;98232.25;;;6.93;89.14
60240;BME280;46102;39.012;-7.064;2023-02-23T04:34:20;98236.81;;;6.98;89.45
60240;BME280;46102;39.012;-7.064;2023-02-23T04:36:21;98239.47;;;7.03;88.40
60240;BME280;46102;39.012;-7.064;2023-02-23T04:38:23;98235.72;;;6.99;88.44
60240;BME280;46102;39.012;-7.064;2023-02-23T04:40:25;98241.16;;;6.99;87.75
60240;BME280;46102;39.012;-7.064;2023-02-23T04:42:26;98231.66;;;6.96;87.84
60240;BME280;46102;39.012;-7.064;2023-02-23T04:44:27;98235.41;;;7.00;87.67
60240;BME280;46102;39.012;-7.064;2023-02-23T04:46:27;98239.13;;;6.91;87.46
60240;BME280;46102;39.012;-7.064;2023-02-23T04:48:28;98246.88;;;6.83;87.77
60240;BME280;46102;39.012;-7.064;2023-02-23T04:50:29;98243.66;;;6.81;88.27
60240;BME280;46102;39.012;-7.064;2023-02-23T04:52:30;98248.91;;;6.78;87.97
60240;BME280;46102;39.012;-7.064;2023-02-23T04:54:31;98254.84;;;6.80;88.01
60240;BME280;46102;39.012;-7.064;2023-02-23T04:56:31;98255.97;;;6.79;87.54
60240;BME280;46102;39.012;-7.064;2023-02-23T04:58:32;98245.66;;;6.76;88.01
60240;BME280;46102;39.012;-7.064;2023-02-23T05:00:33;98249.19;;;6.76;87.47
60240;BME280;46102;39.012;-7.064;2023-02-23T05:02:34;98247.00;;;6.78;86.87
60240;BME280;46102;39.012;-7.064;2023-02-23T05:04:34;98247.66;;;6.70;87.29
60240;BME280;46102;39.012;-7.064;2023-02-23T05:06:35;98248.56;;;6.65;86.87
60240;BME280;46102;39.012;-7.064;2023-02-23T05:08:36;98250.25;;;6.61;87.10
60240;BME280;46102;39.012;-7.064;2023-02-23T05:10:37;98247.03;;;6.59;86.18
60240;BME280;46102;39.012;-7.064;2023-02-23T05:12:37;98247.53;;;6.61;85.87
60240;BME280;46102;39.012;-7.064;2023-02-23T05:14:38;98251.25;;;6.52;86.07
60240;BME280;46102;39.012;-7.064;2023-02-23T05:16:39;98243.69;;;6.49;86.27
60240;BME280;46102;39.012;-7.064;2023-02-23T05:18:40;98246.69;;;6.47;86.43
60240;BME280;46102;39.012;-7.064;2023-02-23T05:20:42;98257.31;;;6.49;86.49
60240;BME280;46102;39.012;-7.064;2023-02-23T05:22:44;98239.69;;;6.41;86.43
60240;BME280;46102;39.012;-7.064;2023-02-23T05:24:44;98246.47;;;6.43;85.68
60240;BME280;46102;39.012;-7.064;2023-02-23T05:26:46;98251.72;;;6.40;85.61
60240;BME280;46102;39.012;-7.064;2023-02-23T05:28:48;98247.34;;;6.39;85.73
60240;BME280;46102;39.012;-7.064;2023-02-23T05:30:49;98241.19;;;6.33;85.58
60240;BME280;46102;39.012;-7.064;2023-02-23T05:32:50;98243.97;;;6.28;86.16
60240;BME280;46102;39.012;-7.064;2023-02-23T05:34:51;98249.94;;;6.30;85.99
60240;BME280;46102;39.012;-7.064;2023-02-23T05:36:52;98245.31;;;6.31;85.41
60240;BME280;46102;39.012;-7.064;2023-02-23T05:38:54;98246.41;;;6.30;85.38
60240;BME280;46102;39.012;-7.064;2023-02-23T05:40:54;98239.88;;;6.31;84.78
60240;BME280;46102;39.012;-7.064;2023-02-23T05:42:58;98256.50;;;6.29;84.59
60240;BME280;46102;39.012;-7.064;2023-02-23T05:44:59;98257.31;;;6.30;84.00
60240;BME280;46102;39.012;-7.064;2023-02-23T05:47:00;98254.16;;;6.22;84.29
60240;BME280;46102;39.012;-7.064;2023-02-23T05:49:01;98249.81;;;6.21;84.07
60240;BME280;46102;39.012;-7.064;2023-02-23T05:51:03;98245.56;;;6.15;83.77
60240;BME280;46102;39.012;-7.064;2023-02-23T05:53:04;98243.88;;;6.19;83.37
60240;BME280;46102;39.012;-7.064;2023-02-23T05:55:06;98245.13;;;6.08;83.69
60240;BME280;46102;39.012;-7.064;2023-02-23T05:57:07;98239.22;;;6.01;83.36
60240;BME280;46102;39.012;-7.064;2023-02-23T05:59:08;98234.38;;;5.98;83.69
60240;BME280;46102;39.012;-7.064;2023-02-23T06:01:09;98236.03;;;5.94;83.90
60240;BME280;46102;39.012;-7.064;2023-02-23T06:03:10;98228.75;;;5.89;83.72
60240;BME280;46102;39.012;-7.064;2023-02-23T06:05:11;98235.50;;;5.92;83.69
60240;BME280;46102;39.012;-7.064;2023-02-23T06:07:13;98223.88;;;5.86;83.37
60240;BME280;46102;39.012;-7.064;2023-02-23T06:09:15;98221.75;;;5.83;83.07
60240;BME280;46102;39.012;-7.064;2023-02-23T06:11:16;98225.34;;;5.78;83.60
60240;BME280;46102;39.012;-7.064;2023-02-23T06:13:16;98220.22;;;5.77;83.27
60240;BME280;46102;39.012;-7.064;2023-02-23T06:15:17;98222.41;;;5.75;82.98
60240;BME280;46102;39.012;-7.064;2023-02-23T06:17:18;98222.53;;;5.64;83.00
60240;BME280;46102;39.012;-7.064;2023-02-23T06:19:19;98219.28;;;5.62;83.35
60240;BME280;46102;39.012;-7.064;2023-02-23T06:21:20;98221.00;;;5.58;83.13
60240;BME280;46102;39.012;-7.064;2023-02-23T06:23:20;98217.47;;;5.58;83.36
60240;BME280;46102;39.012;-7.064;2023-02-23T06:25:21;98222.69;;;5.54;83.27
60240;BME280;46102;39.012;-7.064;2023-02-23T06:27:22;98229.47;;;5.57;83.36
60240;BME280;46102;39.012;-7.064;2023-02-23T06:29:23;98222.97;;;5.53;83.35
60240;BME280;46102;39.012;-7.064;2023-02-23T06:31:24;98228.13;;;5.54;83.27
60240;BME280;46102;39.012;-7.064;2023-02-23T06:33:25;98229.97;;;5.59;83.44
60240;BME280;46102;39.012;-7.064;2023-02-23T06:35:27;98226.84;;;5.47;83.56
60240;BME280;46102;39.012;-7.064;2023-02-23T06:37:28;98227.38;;;5.49;83.40
60240;BME280;46102;39.012;-7.064;2023-02-23T06:39:29;98224.19;;;5.41;83.73
60240;BME280;46102;39.012;-7.064;2023-02-23T06:41:31;98227.53;;;5.38;84.13
60240;BME280;46102;39.012;-7.064;2023-02-23T06:43:32;98221.75;;;5.40;84.15
60240;BME280;46102;39.012;-7.064;2023-02-23T06:45:33;98228.53;;;5.42;83.82
60240;BME280;46102;39.012;-7.064;2023-02-23T06:47:33;98225.88;;;5.37;84.23
60240;BME280;46102;39.012;-7.064;2023-02-23T06:49:34;98229.72;;;5.36;84.60
60240;BME280;46102;39.012;-7.064;2023-02-23T06:51:36;98227.28;;;5.35;84.10
60240;BME280;46102;39.012;-7.064;2023-02-23T06:53:37;98224.78;;;5.38;83.87
60240;BME280;46102;39.012;-7.064;2023-02-23T06:55:37;98233.25;;;5.37;83.89
60240;BME280;46102;39.012;-7.064;2023-02-23T06:57:38;98238.75;;;5.32;84.38
60240;BME280;46102;39.012;-7.064;2023-02-23T06:59:40;98237.44;;;5.29;83.65
60240;BME280;46102;39.012;-7.064;2023-02-23T07:01:42;98226.31;;;5.26;84.09
60240;BME280;46102;39.012;-7.064;2023-02-23T07:03:44;98234.75;;;5.24;83.75
60240;BME280;46102;39.012;-7.064;2023-02-23T07:05:44;98237.72;;;5.28;83.47
60240;BME280;46102;39.012;-7.064;2023-02-23T07:07:45;98239.63;;;5.27;83.80
60240;BME280;46102;39.012;-7.064;2023-02-23T07:09:46;98235.34;;;5.21;83.94
60240;BME280;46102;39.012;-7.064;2023-02-23T07:11:47;98237.78;;;5.22;83.63
60240;BME280;46102;39.012;-7.064;2023-02-23T07:13:47;98236.13;;;5.21;83.36
60240;BME280;46102;39.012;-7.064;2023-02-23T07:15:48;98234.47;;;5.26;83.13
60240;BME280;46102;39.012;-7.064;2023-02-23T07:17:49;98235.56;;;5.25;82.87
60240;BME280;46102;39.012;-7.064;2023-02-23T07:19:52;98228.50;;;5.24;83.05
60240;BME280;46102;39.012;-7.064;2023-02-23T07:21:52;98229.03;;;5.26;83.59
60240;BME280;46102;39.012;-7.064;2023-02-23T07:23:53;98232.66;;;5.40;83.47
60240;BME280;46102;39.012;-7.064;2023-02-23T07:25:54;98229.81;;;5.69;82.63
60240;BME280;46102;39.012;-7.064;2023-02-23T07:27:56;98232.97;;;6.00;81.26
60240;BME280;46102;39.012;-7.064;2023-02-23T07:29:58;98234.06;;;6.37;79.46
60240;BME280;46102;39.012;-7.064;2023-02-23T07:32:00;98235.13;;;6.55;77.69
60240;BME280;46102;39.012;-7.064;2023-02-23T07:34:00;98241.16;;;6.85;76.47
60240;BME280;46102;39.012;-7.064;2023-02-23T07:36:01;98243.22;;;7.21;75.62
60240;BME280;46102;39.012;-7.064;2023-02-23T07:38:02;98245.53;;;7.55;72.58
60240;BME280;46102;39.012;-7.064;2023-02-23T07:40:04;98250.81;;;7.88;70.74
60240;BME280;46102;39.012;-7.064;2023-02-23T07:42:04;98249.69;;;8.03;69.26
60240;BME280;46102;39.012;-7.064;2023-02-23T07:44:05;98254.09;;;8.12;68.09
60240;BME280;46102;39.012;-7.064;2023-02-23T07:46:06;98256.38;;;7.97;68.62
60240;BME280;46102;39.012;-7.064;2023-02-23T07:48:09;98261.53;;;7.98;68.60
60240;BME280;46102;39.012;-7.064;2023-02-23T07:50:11;98274.16;;;8.08;68.38
60240;BME280;46102;39.012;-7.064;2023-02-23T07:52:16;98273.09;;;8.31;66.79
60240;BME280;46102;39.012;-7.064;2023-02-23T07:54:17;98273.59;;;8.33;66.44
60240;BME280;46102;39.012;-7.064;2023-02-23T07:56:18;98279.34;;;8.32;66.43
60240;BME280;46102;39.012;-7.064;2023-02-23T07:58:19;98275.38;;;8.16;66.55
60240;BME280;46102;39.012;-7.064;2023-02-23T08:00:20;98279.44;;;8.04;66.98
60240;BME280;46102;39.012;-7.064;2023-02-23T08:02:21;98282.72;;;7.92;67.36
60240;BME280;46102;39.012;-7.064;2023-02-23T08:04:22;98277.16;;;7.84;68.16
60240;BME280;46102;39.012;-7.064;2023-02-23T08:06:22;98283.53;;;7.79;68.62
60240;BME280;46102;39.012;-7.064;2023-02-23T08:08:23;98283.53;;;7.79;68.32
60240;BME280;46102;39.012;-7.064;2023-02-23T08:10:24;98280.81;;;7.79;69.09
60240;BME280;46102;39.012;-7.064;2023-02-23T08:12:25;98276.44;;;7.78;69.04
60240;BME280;46102;39.012;-7.064;2023-02-23T08:14:26;98280.97;;;7.83;68.94
60240;BME280;46102;39.012;-7.064;2023-02-23T08:16:29;98286.44;;;7.83;68.25
60240;BME280;46102;39.012;-7.064;2023-02-23T08:18:30;98291.31;;;7.86;68.79
60240;BME280;46102;39.012;-7.064;2023-02-23T08:20:31;98291.16;;;8.05;68.23
60240;BME280;46102;39.012;-7.064;2023-02-23T08:22:32;98296.50;;;8.10;67.76
60240;BME280;46102;39.012;-7.064;2023-02-23T08:24:33;98302.06;;;8.19;67.61
60240;BME280;46102;39.012;-7.064;2023-02-23T08:26:34;98294.75;;;8.28;66.72
60240;BME280;46102;39.012;-7.064;2023-02-23T08:28:36;98298.78;;;8.44;66.91
60240;BME280;46102;39.012;-7.064;2023-02-23T08:30:36;98300.78;;;8.52;65.30
60240;BME280;46102;39.012;-7.064;2023-02-23T08:32:39;98298.75;;;8.58;65.13
60240;BME280;46102;39.012;-7.064;2023-02-23T08:34:41;98297.47;;;8.64;65.19
60240;BME280;46102;39.012;-7.064;2023-02-23T08:36:42;98300.63;;;8.71;64.82
60240;BME280;46102;39.012;-7.064;2023-02-23T08:38:44;98308.00;;;8.71;64.42
60240;BME280;46102;39.012;-7.064;2023-02-23T08:40:45;98303.53;;;8.75;64.52
60240;BME280;46102;39.012;-7.064;2023-02-23T08:42:46;98297.66;;;8.90;63.38
60240;BME280;46102;39.012;-7.064;2023-02-23T08:44:51;98298.16;;;8.92;63.56
60240;BME280;46102;39.012;-7.064;2023-02-23T08:46:52;98302.31;;;9.12;63.38
60240;BME280;46102;39.012;-7.064;2023-02-23T08:48:55;98307.78;;;9.12;63.17
60240;BME280;46102;39.012;-7.064;2023-02-23T08:50:57;98314.91;;;9.22;62.57
60240;BME280;46102;39.012;-7.064;2023-02-23T08:52:58;98308.84;;;9.34;62.22
60240;BME280;46102;39.012;-7.064;2023-02-23T08:54:59;98301.97;;;9.45;61.60
60240;BME280;46102;39.012;-7.064;2023-02-23T08:56:59;98308.00;;;9.56;61.40
60240;BME280;46102;39.012;-7.064;2023-02-23T08:59:00;98319.50;;;9.75;59.98
60240;BME280;46102;39.012;-7.064;2023-02-23T09:01:02;98307.59;;;9.80;60.00
60240;BME280;46102;39.012;-7.064;2023-02-23T09:03:04;98312.75;;;9.82;60.45
60240;BME280;46102;39.012;-7.064;2023-02-23T09:05:07;98318.41;;;9.85;59.48
60240;BME280;46102;39.012;-7.064;2023-02-23T09:07:13;98312.78;;;9.99;58.98
60240;BME280;46102;39.012;-7.064;2023-02-23T09:09:15;98315.38;;;10.04;59.13
60240;BME280;46102;39.012;-7.064;2023-02-23T09:11:16;98317.50;;;10.16;58.89
60240;BME280;46102;39.012;-7.064;2023-02-23T09:13:17;98318.50;;;10.29;57.39
60240;BME280;46102;39.012;-7.064;2023-02-23T09:15:18;98328.38;;;10.30;57.16
60240;BME280;46102;39.012;-7.064;2023-02-23T09:17:19;98323.38;;;10.32;56.93
60240;BME280;46102;39.012;-7.064;2023-02-23T09:19:21;98318.03;;;10.44;56.74
60240;BME280;46102;39.012;-7.064;2023-02-23T09:21:22;98313.38;;;10.45;56.75
60240;BME280;46102;39.012;-7.064;2023-02-23T09:23:27;98312.75;;;10.48;56.67
60240;BME280;46102;39.012;-7.064;2023-02-23T09:25:28;98317.25;;;10.61;56.41
60240;BME280;46102;39.012;-7.064;2023-02-23T09:27:31;98316.13;;;10.79;56.11
60240;BME280;46102;39.012;-7.064;2023-02-23T09:29:32;98323.84;;;10.95;55.59
60240;BME280;46102;39.012;-7.064;2023-02-23T09:31:33;98318.97;;;11.09;54.19
60240;BME280;46102;39.012;-7.064;2023-02-23T09:33:34;98308.63;;;11.15;53.67
60240;BME280;46102;39.012;-7.064;2023-02-23T09:35:35;98318.13;;;11.26;53.78
60240;BME280;46102;39.012;-7.064;2023-02-23T09:37:36;98311.63;;;11.39;53.19
60240;BME280;46102;39.012;-7.064;2023-02-23T09:39:37;98306.75;;;11.45;52.76
60240;BME280;46102;39.012;-7.064;2023-02-23T09:42:05;98316.72;;;11.58;52.30
60240;BME280;46102;39.012;-7.064;2023-02-23T09:48:32;98315.47;;;11.85;50.87
60240;BME280;46102;39.012;-7.064;2023-02-23T09:50:34;98319.28;;;12.02;50.72
60240;BME280;46102;39.012;-7.064;2023-02-23T09:52:39;98321.63;;;12.21;50.41
60240;BME280;46102;39.012;-7.064;2023-02-23T09:54:41;98311.56;;;12.25;49.78
60240;BME280;46102;39.012;-7.064;2023-02-23T09:56:46;98306.19;;;12.28;49.51
60240;BME280;46102;39.012;-7.064;2023-02-23T09:58:47;98310.22;;;12.31;48.84
60240;BME280;46102;39.012;-7.064;2023-02-23T10:03:10;98301.50;;;12.71;48.59
60240;BME280;46102;39.012;-7.064;2023-02-23T10:05:14;98301.84;;;13.03;47.61
60240;BME280;46102;39.012;-7.064;2023-02-23T10:10:00;98294.47;;;13.28;47.03
60240;BME280;46102;39.012;-7.064;2023-02-23T10:12:09;98286.38;;;13.68;46.02
60240;BME280;46102;39.012;-7.064;2023-02-23T10:16:49;98282.22;;;14.11;43.81
60240;BME280;46102;39.012;-7.064;2023-02-23T10:21:04;98280.00;;;14.29;44.26
60240;BME280;46102;39.012;-7.064;2023-02-23T10:23:10;98283.41;;;14.51;43.69
60240;BME280;46102;39.012;-7.064;2023-02-23T10:25:16;98277.63;;;14.68;44.02
60240;BME280;46102;39.012;-7.064;2023-02-23T10:27:21;98280.78;;;14.83;42.84
60240;BME280;46102;39.012;-7.064;2023-02-23T10:29:35;98278.75;;;14.67;42.19
60240;BME280;46102;39.012;-7.064;2023-02-23T10:31:44;98282.19;;;14.76;42.29
60240;BME280;46102;39.012;-7.064;2023-02-23T10:33:47;98276.25;;;14.90;41.70
60240;BME280;46102;39.012;-7.064;2023-02-23T10:35:51;98279.19;;;14.82;41.12
60240;BME280;46102;39.012;-7.064;2023-02-23T10:37:55;98275.53;;;14.77;41.39
60240;BME280;46102;39.012;-7.064;2023-02-23T10:39:56;98275.06;;;14.75;41.25
60240;BME280;46102;39.012;-7.064;2023-02-23T10:42:02;98278.50;;;14.72;41.88
60240;BME280;46102;39.012;-7.064;2023-02-23T10:44:14;98276.97;;;14.87;41.45
60240;BME280;46102;39.012;-7.064;2023-02-23T10:46:21;98273.72;;;15.13;40.67
60240;BME280;46102;39.012;-7.064;2023-02-23T10:48:29;98271.03;;;15.17;40.48
60240;BME280;46102;39.012;-7.064;2023-02-23T10:50:32;98278.03;;;15.27;40.49
60240;BME280;46102;39.012;-7.064;2023-02-23T10:52:39;98270.16;;;15.29;39.93
60240;BME280;46102;39.012;-7.064;2023-02-23T10:56:44;98271.97;;;15.37;39.22
60240;BME280;46102;39.012;-7.064;2023-02-23T10:58:48;98270.44;;;15.39;39.83
60240;BME280;46102;39.012;-7.064;2023-02-23T11:01:01;98272.13;;;15.44;39.13
60240;BME280;46102;39.012;-7.064;2023-02-23T11:03:16;98271.63;;;15.38;39.36
60240;BME280;46102;39.012;-7.064;2023-02-23T11:07:36;98269.97;;;15.22;40.00
60240;BME280;46102;39.012;-7.064;2023-02-23T11:09:38;98269.28;;;15.25;40.14
60240;BME280;46102;39.012;-7.064;2023-02-23T11:11:55;98257.25;;;15.49;38.94
60240;BME280;46102;39.012;-7.064;2023-02-23T11:13:57;98270.13;;;15.73;37.75
60240;BME280;46102;39.012;-7.064;2023-02-23T11:16:04;98262.25;;;15.59;38.45
60240;BME280;46102;39.012;-7.064;2023-02-23T11:18:05;98254.69;;;15.72;37.95
60240;BME280;46102;39.012;-7.064;2023-02-23T11:20:23;98254.31;;;15.73;37.94
60240;BME280;46102;39.012;-7.064;2023-02-23T11:22:30;98256.81;;;15.94;37.84
60240;BME280;46102;39.012;-7.064;2023-02-23T11:24:36;98253.41;;;16.01;36.83
60240;BME280;46102;39.012;-7.064;2023-02-23T11:26:41;98256.97;;;16.01;36.86
60240;BME280;46102;39.012;-7.064;2023-02-23T11:28:43;98254.34;;;16.09;36.37
60240;BME280;46102;39.012;-7.064;2023-02-23T11:30:44;98253.59;;;15.92;36.99
60240;BME280;46102;39.012;-7.064;2023-02-23T11:32:53;98249.13;;;16.03;37.40
60240;BME280;46102;39.012;-7.064;2023-02-23T11:37:19;98238.88;;;16.23;35.83
60240;BME280;46102;39.012;-7.064;2023-02-23T11:39:21;98234.97;;;16.44;34.69
60240;BME280;46102;39.012;-7.064;2023-02-23T11:41:23;98238.44;;;16.41;34.18
60240;BME280;46102;39.012;-7.064;2023-02-23T11:43:24;98237.78;;;16.48;34.14
60240;BME280;46102;39.012;-7.064;2023-02-23T11:45:26;98234.97;;;16.44;34.10
60240;BME280;46102;39.012;-7.064;2023-02-23T11:47:38;98240.13;;;16.65;32.82
60240;BME280;46102;39.012;-7.064;2023-02-23T11:49:43;98230.00;;;16.53;33.63
60240;BME280;46102;39.012;-7.064;2023-02-23T11:51:47;98235.69;;;16.41;34.23
60240;BME280;46102;39.012;-7.064;2023-02-23T11:53:49;98232.91;;;16.41;33.29